createdAt,value
2019-01-24T00:12:47.336Z,2.17
2019-01-24T00:12:47.559Z,3
2019-01-24T00:12:47.587Z,3
2019-01-24T00:12:47.605Z,3
2019-01-24T00:18:42.357Z,3.07
2019-01-24T00:24:37.345Z,2.42
2019-01-24T00:30:32.331Z,5.69
2019-01-24T00:36:27.329Z,3.85
2019-01-24T00:42:22.355Z,6.33
2019-01-24T00:48:17.325Z,1.47
2019-01-24T00:54:12.368Z,2.92
2019-01-24T01:00:07.332Z,3.01
2019-01-24T01:06:02.362Z,1.87
2019-01-24T01:11:57.342Z,1.63
2019-01-24T01:17:52.381Z,1.69
2019-01-24T01:23:51.410Z,1.04
2019-01-24T01:29:42.335Z,0.86
2019-01-24T01:35:37.388Z,0.72
2019-01-24T01:41:32.341Z,0.89
2019-01-24T01:47:27.334Z,1.17
2019-01-24T01:53:22.360Z,0.88
2019-01-24T01:59:17.397Z,1.11
2019-01-24T02:05:12.396Z,0.92
2019-01-24T02:11:07.362Z,1
2019-01-24T02:17:02.339Z,0.84
2019-01-24T02:22:57.338Z,1.07
2019-01-24T02:28:52.364Z,0.9
2019-01-24T02:34:49.628Z,0.87
2019-01-24T02:40:42.338Z,0.82
2019-01-24T02:46:37.365Z,0.7
2019-01-24T02:52:32.362Z,0.76
2019-01-24T03:16:12.402Z,0.93
2019-01-24T03:16:12.419Z,0.86
2019-01-24T03:16:12.430Z,0.86
2019-01-24T03:16:12.478Z,0.86
2019-01-24T03:22:07.376Z,0.95
2019-01-24T03:28:02.356Z,0.7
2019-01-24T03:33:57.388Z,0.85
2019-01-24T03:39:52.367Z,0.67
2019-01-24T03:45:47.368Z,0.87
2019-01-24T03:51:42.390Z,0.63
2019-01-24T03:57:37.374Z,0.78
2019-01-24T04:03:32.369Z,0.83
2019-01-24T04:09:27.372Z,0.84
2019-01-24T04:15:22.403Z,0.98
2019-01-24T04:21:17.419Z,0.78
2019-01-24T04:27:12.381Z,0.88
2019-01-24T04:33:07.388Z,0.77
2019-01-24T04:39:02.385Z,0.7
2019-01-24T04:44:57.382Z,1.32
2019-01-24T04:50:52.373Z,1.23
2019-01-24T04:56:47.422Z,1.82
2019-01-24T05:02:42.404Z,1.16
2019-01-24T05:08:37.397Z,1.35
2019-01-24T05:14:32.410Z,1.11
2019-01-24T05:20:27.386Z,1.25
2019-01-24T05:26:22.393Z,1.64
2019-01-24T05:32:17.386Z,1.65
2019-01-24T05:38:12.391Z,1.61
2019-01-24T05:44:07.403Z,1.96
2019-01-24T05:50:02.447Z,1.41
2019-01-24T06:13:42.444Z,4.5
2019-01-24T06:13:42.600Z,17.17
2019-01-24T06:13:42.607Z,17.17
2019-01-24T06:13:42.613Z,17.17
2019-01-24T06:19:37.445Z,18.2
2019-01-24T06:25:32.416Z,11.74
2019-01-24T06:31:27.429Z,5.19
2019-01-24T06:37:22.429Z,6.75
2019-01-24T06:43:17.436Z,7.97
2019-01-24T06:49:12.420Z,7.65
2019-01-24T06:55:07.423Z,6.2
2019-01-24T07:01:02.423Z,5.13
2019-01-24T07:06:57.417Z,9.34
2019-01-24T07:12:52.421Z,4.18
2019-01-24T07:18:47.435Z,5.02
2019-01-24T07:24:42.422Z,4.62
2019-01-24T07:30:37.479Z,6.75
2019-01-24T07:36:32.459Z,5.67
2019-01-24T07:42:27.421Z,6.13
2019-01-24T07:48:22.438Z,5.52
2019-01-24T07:54:17.438Z,10.56
2019-01-24T08:00:12.494Z,8.09
2019-01-24T08:06:09.109Z,9.58
2019-01-24T08:12:02.435Z,10.15
2019-01-24T08:17:57.475Z,6.03
2019-01-24T08:23:52.451Z,9.14
2019-01-24T08:29:47.430Z,9.34
2019-01-24T08:35:42.439Z,7.43
2019-01-24T08:41:37.449Z,7.44
2019-01-24T08:47:32.448Z,9.33
2019-01-24T08:53:27.423Z,7.08
2019-01-24T09:17:07.478Z,9.61
2019-01-24T09:17:07.634Z,7.68
2019-01-24T09:17:07.642Z,7.68
2019-01-24T09:17:07.697Z,7.68
2019-01-24T09:23:02.445Z,6.95
2019-01-24T09:28:57.459Z,6.8
2019-01-24T09:34:52.466Z,6.45
2019-01-24T09:40:47.433Z,6.03
2019-01-24T09:46:42.459Z,11.05
2019-01-24T09:52:37.454Z,9.9
2019-01-24T09:58:32.456Z,8.43
2019-01-24T10:04:27.459Z,9.2
2019-01-24T10:10:22.456Z,6.42
2019-01-24T10:16:17.503Z,5.86
2019-01-24T10:22:12.565Z,7.68
2019-01-24T10:28:07.479Z,8.41
2019-01-24T10:34:02.456Z,8.26
2019-01-24T10:39:57.551Z,7.48
2019-01-24T10:45:52.466Z,6.54
2019-01-24T10:51:47.489Z,7.81
2019-01-24T10:57:42.461Z,7.42
2019-01-24T11:03:37.478Z,11.47
2019-01-24T11:09:32.508Z,7.3
2019-01-24T11:15:27.487Z,7.59
2019-01-24T11:21:22.467Z,3.92
2019-01-24T11:27:17.485Z,6.89
2019-01-24T11:33:12.476Z,7.85
2019-01-24T11:39:07.500Z,4.48
2019-01-24T11:45:02.504Z,3.63
2019-01-24T11:50:57.505Z,6.1
2019-01-24T12:14:37.519Z,7.54
2019-01-24T12:14:37.570Z,7.02
2019-01-24T12:14:37.579Z,7.02
2019-01-24T12:14:37.621Z,7.02
2019-01-24T12:20:32.478Z,5.36
2019-01-24T12:26:27.478Z,5.44
2019-01-24T12:32:22.510Z,7.36
2019-01-24T12:38:17.509Z,4.47
2019-01-24T12:44:12.512Z,5.18
2019-01-24T12:50:07.495Z,6.95
2019-01-24T12:56:02.490Z,29.54
2019-01-24T13:01:57.511Z,11.04
2019-01-24T13:07:52.505Z,9.07
2019-01-24T13:13:47.519Z,5.45
2019-01-24T13:19:42.511Z,6.52
2019-01-24T13:25:37.519Z,7.48
2019-01-24T13:31:32.502Z,9.02
2019-01-24T13:37:27.533Z,8.02
2019-01-24T13:43:22.509Z,7.6
2019-01-24T13:49:17.523Z,7.79
2019-01-24T13:55:12.516Z,6.2
2019-01-24T14:01:07.522Z,5.08
2019-01-24T14:07:02.521Z,6.76
2019-01-24T14:12:57.517Z,8.28
2019-01-24T14:18:52.535Z,6.25
2019-01-24T14:24:47.571Z,5.09
2019-01-24T14:30:42.509Z,6.32
2019-01-24T14:36:37.510Z,5.55
2019-01-24T14:42:32.512Z,4.41
2019-01-24T14:48:27.522Z,3.73
2019-01-24T14:54:22.542Z,6.47
2019-01-24T15:18:02.585Z,4.67
2019-01-24T15:18:02.634Z,6.24
2019-01-24T15:18:02.644Z,6.24
2019-01-24T15:18:02.693Z,6.24
2019-01-24T15:23:57.535Z,5.57
2019-01-24T15:29:52.520Z,4.92
2019-01-24T15:35:47.565Z,5.04
2019-01-24T15:41:42.575Z,5.03
2019-01-24T15:47:37.566Z,3.73
2019-01-24T15:53:32.562Z,4.78
2019-01-24T15:59:27.538Z,5.28
2019-01-24T16:05:22.640Z,4
2019-01-24T16:11:17.630Z,4.21
2019-01-24T16:17:12.572Z,4.25
2019-01-24T16:23:07.537Z,4.09
2019-01-24T16:29:02.572Z,4.18
2019-01-24T16:34:57.570Z,3.77
2019-01-24T16:40:52.594Z,3.15
2019-01-24T16:46:47.599Z,3.52
2019-01-24T16:52:42.613Z,5.03
2019-01-24T16:58:37.539Z,4.48
2019-01-24T17:04:32.596Z,5.55
2019-01-24T17:10:27.549Z,6.22
2019-01-24T17:16:22.593Z,22.08
2019-01-24T17:22:17.598Z,5.57
2019-01-24T17:28:12.613Z,6.2
2019-01-24T17:34:07.581Z,7.8
2019-01-24T17:40:02.595Z,6.84
2019-01-24T17:45:57.584Z,7.6
2019-01-24T17:51:52.590Z,6.48
2019-01-24T18:15:32.599Z,6.63
2019-01-24T18:15:32.775Z,6.6
2019-01-24T18:15:32.787Z,6.6
2019-01-24T18:15:32.829Z,6.6
2019-01-24T18:21:27.621Z,9.3
2019-01-24T18:27:22.578Z,22.92
2019-01-24T18:33:17.570Z,36.09
2019-01-24T18:39:12.565Z,17.06
2019-01-24T18:45:07.569Z,8.34
2019-01-24T18:51:02.603Z,9.47
2019-01-24T18:56:57.589Z,7.01
2019-01-24T19:02:52.597Z,7.46
2019-01-24T19:08:47.565Z,6.87
2019-01-24T19:14:42.657Z,10.85
2019-01-24T19:20:37.642Z,7
2019-01-24T19:26:32.586Z,5.23
2019-01-24T19:32:27.581Z,7.65
2019-01-24T19:38:22.597Z,7.67
2019-01-24T19:44:17.612Z,6.04
2019-01-24T19:50:12.591Z,6.36
2019-01-24T19:56:07.607Z,5.53
2019-01-24T20:02:02.631Z,6.09
2019-01-24T20:07:57.611Z,7.17
2019-01-24T20:13:52.619Z,6.76
2019-01-24T20:19:47.608Z,8.76
2019-01-24T20:25:42.590Z,5.99
2019-01-24T20:31:37.646Z,5.99
2019-01-24T20:37:32.608Z,7.74
2019-01-24T20:43:27.632Z,6.57
2019-01-24T20:49:22.620Z,9.79
2019-01-24T20:55:17.630Z,5.46
2019-01-24T21:18:57.673Z,5.84
2019-01-24T21:18:57.850Z,7.43
2019-01-24T21:18:57.869Z,7.43
2019-01-24T21:18:57.886Z,7.43
2019-01-24T21:24:52.651Z,7.09
2019-01-24T21:30:47.627Z,5.85
2019-01-24T21:36:42.632Z,8.83
2019-01-24T21:42:37.636Z,7.42
2019-01-24T21:48:32.612Z,8.02
2019-01-24T21:54:27.616Z,8.39
2019-01-24T22:00:22.612Z,8.2
2019-01-24T22:06:17.672Z,8.71
2019-01-24T22:12:12.629Z,8.45
2019-01-24T22:18:07.639Z,8.71
2019-01-24T22:24:02.633Z,6.35
2019-01-24T22:29:57.622Z,9.3
2019-01-24T22:35:52.676Z,7.85
2019-01-24T22:41:47.636Z,8.32
2019-01-24T22:47:42.643Z,11.02
2019-01-24T22:53:37.622Z,7.7
2019-01-24T22:59:32.648Z,7.68
2019-01-24T23:05:27.634Z,7.58
2019-01-24T23:11:23.644Z,9.23
2019-01-24T23:17:17.689Z,9.35
2019-01-24T23:23:12.644Z,8.13
2019-01-24T23:29:07.671Z,8.07
2019-01-24T23:35:02.659Z,10.45
2019-01-24T23:40:57.698Z,8.43
2019-01-24T23:46:52.794Z,10.45
2019-01-24T23:52:47.659Z,9.23
